»·PEaware :: N646CB KSBP-KSMX

N646CB :: KSBP-KSMX

FLIGHT INFORMATION

Flight Status: Arrived
Operator: Privately registered:
United States
More flights under this callsign
Pilot: Neill H. (30148)
Aircraft: CESSNA 172 SKYHAWK
(C172)
More flights by this aircraft type
Origin: KSBP San Luis Co Regl
United States
Destination: KSMX Santa Maria Pub/Capt Hancock
United States
More flights between these airports :: More routes between these airports
Route:
File this flight plan on PilotEdge
Remarks:
Altitude:
(Current/Filed)
3,500ft
Speed:
(Current/Filed)
110kts
Departed: 11-Jan-21 06:53 PM
Arrived: 11-Jan-21 07:15 PM
Distance/Time
Traveled:
150nm/0:22
Distance/Time
To Go:
Arrived

Flight Plot

Page will automatically refresh every two minutes.


Map Options




Map Legend


Flown Route
Filed Route
Departure Airport
Arrival Airport
Navaid (VOR, NDB)
Fix

Horizontal Profiles

Position Reports

Time Latitude Longitude Heading Altitude Ground
Speed
11-Jan-21 18:36 35.234208 -120.632870 306 216ft 0kts
11-Jan-21 18:37 35.234208 -120.632870 306 216ft 0kts
11-Jan-21 18:38 35.234208 -120.632870 306 216ft 0kts
11-Jan-21 18:39 35.234208 -120.632870 306 216ft 0kts
11-Jan-21 18:40 35.234208 -120.632870 306 216ft 0kts
11-Jan-21 18:41 35.234208 -120.632870 306 216ft 0kts
11-Jan-21 18:42 35.234215 -120.632880 310 216ft 0kts
11-Jan-21 18:43 35.234438 -120.633635 239 216ft 7kts
11-Jan-21 18:44 35.233227 -120.632045 246 216ft 0kts
11-Jan-21 18:45 35.233227 -120.632045 246 216ft 0kts
11-Jan-21 18:46 35.233227 -120.632045 246 216ft 0kts
11-Jan-21 18:47 35.233227 -120.632045 246 216ft 0kts
11-Jan-21 18:48 35.233227 -120.632045 246 216ft 0kts
11-Jan-21 18:49 35.233151 -120.632238 248 216ft 0kts
11-Jan-21 18:50 35.233151 -120.632238 248 216ft 0kts
11-Jan-21 18:51 35.233070 -120.632440 238 216ft 6kts
11-Jan-21 18:52 35.238924 -120.643044 308 591ft 68kts
11-Jan-21 18:53 35.243225 -120.666350 270 1446ft 84kts
11-Jan-21 18:54 35.244322 -120.695071 281 2257ft 85kts
11-Jan-21 18:55 35.247602 -120.723432 282 3065ft 83kts
11-Jan-21 18:56 35.248834 -120.751982 239 3469ft 92kts
11-Jan-21 18:57 35.225564 -120.739442 135 3476ft 120kts
11-Jan-21 18:58 35.199832 -120.714597 146 3473ft 117kts
11-Jan-21 18:59 35.173326 -120.691733 147 3474ft 116kts
11-Jan-21 19:00 35.146860 -120.669024 147 3475ft 116kts
11-Jan-21 19:01 35.120267 -120.646240 147 3317ft 118kts
11-Jan-21 19:02 35.094093 -120.623828 147 2924ft 111kts
11-Jan-21 19:03 35.070253 -120.603434 147 2375ft 105kts
11-Jan-21 19:04 35.052313 -120.588093 147 1932ft 104kts
11-Jan-21 19:05 35.027557 -120.566916 146 1478ft 103kts
11-Jan-21 19:06 35.012111 -120.547706 134 1482ft 109kts
11-Jan-21 19:07 34.990038 -120.519261 134 1479ft 118kts
11-Jan-21 19:08 34.965461 -120.492724 141 1478ft 118kts
11-Jan-21 19:09 34.939684 -120.468347 144 1423ft 114kts
11-Jan-21 19:10 34.916931 -120.446354 140 1174ft 86kts
11-Jan-21 19:11 34.899533 -120.427369 138 1023ft 95kts
11-Jan-21 19:12 34.881885 -120.430303 283 886ft 64kts
11-Jan-21 19:13 34.892569 -120.445542 312 296ft 52kts
11-Jan-21 19:14 34.897921 -120.450302 3 265ft 0kts
11-Jan-21 19:15 34.897569 -120.449078 137 265ft 21kts
11-Jan-21 19:16 34.894087 -120.443572 54 265ft 11kts
11-Jan-21 19:17 34.894355 -120.443497 341 265ft 0kts
11-Jan-21 19:18 34.894355 -120.443497 341 265ft 0kts
11-Jan-21 19:19 34.894355 -120.443497 341 265ft 0kts
11-Jan-21 19:20 34.894355 -120.443497 341 265ft 0kts
11-Jan-21 19:21 34.894355 -120.443497 341 265ft 0kts
11-Jan-21 19:22 33.812682 -118.154096 89 45ft 0kts
11-Jan-21 19:23 33.812682 -118.154096 89 45ft 0kts
11-Jan-21 19:24 33.812682 -118.154096 89 45ft 0kts
11-Jan-21 19:25 33.812682 -118.154096 89 45ft 0kts
11-Jan-21 19:26 33.812682 -118.154096 89 45ft 0kts
11-Jan-21 19:27 33.812682 -118.154096 89 45ft 0kts
11-Jan-21 19:28 33.812682 -118.154096 89 45ft 0kts

Navigation Log

Ident Type
Flight plan parsing failed, navigation log unavailable